createdAt,value
2022-09-17T00:00:49.874Z,13.13
2022-09-17T00:03:17.295Z,18.15
2022-09-17T00:05:44.591Z,15.82
2022-09-17T00:08:16.570Z,12.50
2022-09-17T00:10:44.377Z,17.23
2022-09-17T00:13:12.241Z,10.05
2022-09-17T00:15:43.725Z,13.02
2022-09-17T00:18:11.358Z,10.68
2022-09-17T00:20:43.038Z,12.13
2022-09-17T00:23:10.866Z,19.52
2022-09-17T00:25:41.796Z,19.08
2022-09-17T00:28:08.549Z,13.60
2022-09-17T00:30:35.602Z,11.77
2022-09-17T00:33:02.216Z,13.20
2022-09-17T00:35:29.954Z,24.20
2022-09-17T00:37:56.504Z,20.27
2022-09-17T00:40:23.673Z,14.32
2022-09-17T00:42:53.286Z,14.07
2022-09-17T00:45:20.391Z,19.27
2022-09-17T00:47:59.226Z,15.68
2022-09-17T00:50:40.378Z,23.58
2022-09-17T00:53:14.840Z,14.57
2022-09-17T00:55:45.872Z,17.80
2022-09-17T00:58:15.101Z,12.35
2022-09-17T01:00:42.070Z,20.77
2022-09-17T01:03:08.772Z,15.55
2022-09-17T01:05:50.063Z,14.50
2022-09-17T01:08:19.736Z,21.48
2022-09-17T01:11:05.324Z,15.52
2022-09-17T01:13:46.860Z,10.55
2022-09-17T01:16:28.613Z,12.82
2022-09-17T01:19:01.684Z,17.75
2022-09-17T01:21:49.785Z,11.40
2022-09-17T01:24:33.705Z,10.60
2022-09-17T01:27:32.619Z,23.80
2022-09-17T01:30:40.556Z,12.75
2022-09-17T01:33:21.482Z,16.17
2022-09-17T01:35:57.411Z,15.20
2022-09-17T01:38:29.793Z,18.50
2022-09-17T01:41:11.529Z,37.65
2022-09-17T01:43:49.966Z,50.55
2022-09-17T01:46:30.823Z,25.17
2022-09-17T01:49:02.051Z,22.25
2022-09-17T01:51:35.269Z,20.13
2022-09-17T01:54:07.255Z,30.50
2022-09-17T01:56:44.235Z,23.42
2022-09-17T01:59:29.617Z,15.68
2022-09-17T02:02:07.114Z,17.08
2022-09-17T02:04:38.549Z,13.35
2022-09-17T02:07:09.529Z,20.60
2022-09-17T02:09:52.590Z,13.48
2022-09-17T02:12:27.687Z,13.55
2022-09-17T02:14:59.113Z,17.33
2022-09-17T02:17:33.859Z,21.33
2022-09-17T02:20:01.483Z,23.25
2022-09-17T02:22:39.096Z,25.35
2022-09-17T02:25:17.597Z,15.57
2022-09-17T02:27:52.992Z,20.05
2022-09-17T02:30:19.763Z,18.10
2022-09-17T02:32:46.660Z,21.42
2022-09-17T02:35:14.372Z,20.52
2022-09-17T02:37:44.715Z,17.58
2022-09-17T02:40:15.080Z,18.38
2022-09-17T02:43:00.063Z,30.92
2022-09-17T02:45:50.796Z,20.55
2022-09-17T02:48:52.606Z,22.73
2022-09-17T02:51:47.411Z,18.98
2022-09-17T02:54:29.164Z,31.23
2022-09-17T02:57:10.068Z,24.40
2022-09-17T02:59:56.959Z,25.63
2022-09-17T03:02:28.027Z,30.08
2022-09-17T03:04:56.378Z,27.88
2022-09-17T03:07:23.741Z,23.05
2022-09-17T03:09:50.475Z,22.25
2022-09-17T03:12:17.082Z,18.52
2022-09-17T03:14:43.653Z,16.17
2022-09-17T03:17:11.245Z,17.63
2022-09-17T03:19:37.802Z,14.90
2022-09-17T03:22:04.434Z,13.25
2022-09-17T03:24:31.289Z,17.33
2022-09-17T03:26:57.853Z,16.35
2022-09-17T03:29:24.482Z,13.25
2022-09-17T03:31:51.096Z,12.60
2022-09-17T03:34:17.872Z,9.40
2022-09-17T03:36:44.414Z,19.10
2022-09-17T03:39:13.791Z,11.95
2022-09-17T03:41:40.423Z,10.93
2022-09-17T03:44:07.011Z,18.33
2022-09-17T03:46:33.614Z,18.88
2022-09-17T03:49:00.390Z,11.50
2022-09-17T03:51:26.925Z,17.50
2022-09-17T03:53:53.561Z,13.23
2022-09-17T03:56:20.167Z,14.07
2022-09-17T03:58:46.754Z,9.77
2022-09-17T04:01:13.722Z,17.30
2022-09-17T04:03:40.418Z,14.68
2022-09-17T04:06:07.071Z,18.92
2022-09-17T04:08:34.623Z,28.52
2022-09-17T04:11:01.224Z,30.27
2022-09-17T04:13:27.760Z,29.95
2022-09-17T04:15:54.427Z,38.58
2022-09-17T04:18:21.077Z,28.85
2022-09-17T04:20:47.785Z,34.35
2022-09-17T04:23:14.388Z,36.42
2022-09-17T04:25:40.953Z,40.63
2022-09-17T04:28:07.566Z,43.03
2022-09-17T04:30:34.170Z,52.95
2022-09-17T04:33:00.728Z,46.20
2022-09-17T04:35:27.463Z,39.03
2022-09-17T04:37:55.147Z,46.17
2022-09-17T04:40:23.002Z,46.05
2022-09-17T04:42:52.893Z,44.03
2022-09-17T04:45:19.644Z,47.03
2022-09-17T04:47:46.301Z,56.28
2022-09-17T04:50:12.990Z,45.72
2022-09-17T04:52:43.738Z,52.50
2022-09-17T04:55:10.735Z,44.50
2022-09-17T04:57:38.762Z,63.28
2022-09-17T05:00:10.079Z,45.08
2022-09-17T05:02:36.657Z,47.20
2022-09-17T05:05:03.561Z,40.30
2022-09-17T05:07:30.121Z,43.67
2022-09-17T05:09:56.694Z,43.90
2022-09-17T05:12:23.406Z,46.85
2022-09-17T05:14:50.055Z,47.00
2022-09-17T05:17:16.666Z,41.35
2022-09-17T05:19:43.322Z,41.67
2022-09-17T05:22:10.092Z,35.63
2022-09-17T05:24:39.372Z,38.15
2022-09-17T05:27:07.033Z,45.72
2022-09-17T05:29:33.611Z,43.33
2022-09-17T05:32:00.446Z,49.22
2022-09-17T05:34:27.036Z,38.50
2022-09-17T05:36:53.601Z,32.88
2022-09-17T05:39:22.716Z,37.05
2022-09-17T05:41:49.290Z,43.50
2022-09-17T05:44:18.113Z,34.28
2022-09-17T05:46:45.682Z,31.08
2022-09-17T05:49:12.974Z,34.40
2022-09-17T05:51:39.537Z,33.28
2022-09-17T05:54:06.402Z,37.13
2022-09-17T05:56:32.938Z,39.45
2022-09-17T05:58:59.548Z,36.28
2022-09-17T06:01:26.389Z,31.70
2022-09-17T06:03:53.830Z,29.45
2022-09-17T06:06:20.521Z,31.83
2022-09-17T06:08:47.129Z,38.95
2022-09-17T06:11:13.713Z,28.42
2022-09-17T06:13:40.331Z,27.98
2022-09-17T06:16:06.982Z,29.48
2022-09-17T06:18:33.598Z,32.60
2022-09-17T06:21:02.497Z,31.25
2022-09-17T06:23:35.254Z,25.45
2022-09-17T06:26:03.226Z,16.08
2022-09-17T06:28:30.465Z,38.10
2022-09-17T06:31:05.787Z,18.05
2022-09-17T06:33:33.167Z,28.02
2022-09-17T06:36:01.281Z,21.25
2022-09-17T06:38:28.852Z,26.05
2022-09-17T06:40:56.218Z,29.05
2022-09-17T06:43:23.750Z,19.25
2022-09-17T06:46:00.902Z,21.02
2022-09-17T06:48:30.044Z,28.05
2022-09-17T06:51:02.007Z,23.45
2022-09-17T06:53:29.764Z,18.88
2022-09-17T06:56:05.971Z,29.55
2022-09-17T06:58:34.350Z,23.05
2022-09-17T07:01:01.993Z,19.83
2022-09-17T07:03:29.919Z,23.00
2022-09-17T07:05:57.088Z,22.67
2022-09-17T07:08:23.848Z,22.73
2022-09-17T07:10:50.452Z,22.33
2022-09-17T07:13:17.111Z,30.63
2022-09-17T07:15:43.710Z,20.75
2022-09-17T07:18:11.280Z,26.23
2022-09-17T07:20:39.232Z,21.20
2022-09-17T07:23:08.446Z,24.15
2022-09-17T07:25:34.986Z,24.00
2022-09-17T07:28:03.172Z,26.83
2022-09-17T07:30:29.980Z,29.90
2022-09-17T07:32:56.563Z,21.30
2022-09-17T07:35:23.290Z,22.52
2022-09-17T07:37:49.821Z,20.30
2022-09-17T07:40:16.443Z,18.95
2022-09-17T07:42:43.191Z,25.92
2022-09-17T07:45:09.933Z,20.20
2022-09-17T07:47:40.845Z,19.27
2022-09-17T07:50:08.629Z,24.33
2022-09-17T07:52:35.280Z,26.00
2022-09-17T07:55:05.095Z,28.25
2022-09-17T07:57:31.708Z,24.00
2022-09-17T07:59:58.285Z,32.13
2022-09-17T08:02:25.047Z,19.42
2022-09-17T08:04:52.133Z,23.20
2022-09-17T08:07:19.000Z,21.75
2022-09-17T08:09:45.547Z,20.20
2022-09-17T08:12:12.082Z,17.88
2022-09-17T08:14:38.928Z,19.73
2022-09-17T08:17:10.480Z,18.05
2022-09-17T08:19:37.100Z,20.48
2022-09-17T08:22:03.674Z,14.48
2022-09-17T08:24:30.234Z,10.82
2022-09-17T08:26:57.312Z,12.80
2022-09-17T08:29:23.852Z,12.25
2022-09-17T08:31:50.766Z,13.57
2022-09-17T08:34:17.394Z,30.70
2022-09-17T08:36:43.944Z,15.10
2022-09-17T08:39:12.212Z,14.18
2022-09-17T08:42:02.032Z,14.02
2022-09-17T08:44:40.841Z,15.63
2022-09-17T08:47:20.999Z,9.10
2022-09-17T08:49:57.514Z,10.00
2022-09-17T08:52:45.681Z,10.98
2022-09-17T08:55:21.112Z,9.98
2022-09-17T08:58:15.539Z,7.85
2022-09-17T09:00:50.545Z,15.18
2022-09-17T09:03:43.149Z,12.13
2022-09-17T09:06:11.158Z,16.30
2022-09-17T09:09:10.264Z,16.45
2022-09-17T09:11:37.019Z,16.52
2022-09-17T09:14:09.731Z,26.98
2022-09-17T09:16:40.356Z,18.00
2022-09-17T09:19:19.517Z,13.02
2022-09-17T09:22:01.296Z,16.85
2022-09-17T09:24:43.204Z,18.85
2022-09-17T09:27:22.394Z,19.23
2022-09-17T09:29:58.549Z,22.60
2022-09-17T09:32:45.576Z,11.48
2022-09-17T09:35:18.243Z,21.13
2022-09-17T09:37:53.361Z,10.77
2022-09-17T09:40:32.133Z,19.88
2022-09-17T09:43:03.797Z,20.25
2022-09-17T09:45:51.678Z,9.18
2022-09-17T09:48:36.764Z,10.27
2022-09-17T09:51:09.776Z,20.92
2022-09-17T09:54:07.833Z,17.17
2022-09-17T09:56:56.094Z,21.27
2022-09-17T09:59:23.038Z,13.10
2022-09-17T10:01:49.690Z,14.43
2022-09-17T10:04:29.143Z,15.05
2022-09-17T10:07:05.833Z,11.48
2022-09-17T10:09:34.485Z,18.73
2022-09-17T10:12:08.448Z,18.95
2022-09-17T10:17:22.447Z,14.50
2022-09-17T10:20:13.249Z,20.40
2022-09-17T10:22:42.716Z,19.65
2022-09-17T10:25:27.270Z,18.08
2022-09-17T10:27:54.630Z,21.77
2022-09-17T10:30:27.591Z,7.93
2022-09-17T10:33:30.574Z,13.43
2022-09-17T10:36:01.334Z,12.48
2022-09-17T10:38:39.877Z,14.40
2022-09-17T10:41:14.501Z,10.07
2022-09-17T10:43:41.681Z,12.65
2022-09-17T10:46:12.315Z,8.48
2022-09-17T10:48:43.841Z,10.25
2022-09-17T10:51:11.359Z,9.80
2022-09-17T10:54:01.889Z,10.77
2022-09-17T10:56:36.094Z,9.65
2022-09-17T10:59:27.434Z,17.70
2022-09-17T11:02:12.555Z,8.00
2022-09-17T11:04:48.711Z,14.25
2022-09-17T11:07:28.632Z,15.35
2022-09-17T11:10:13.304Z,10.07
2022-09-17T11:13:17.126Z,10.05
2022-09-17T11:16:04.296Z,14.63
2022-09-17T11:18:44.470Z,16.85
2022-09-17T11:21:13.833Z,7.32
2022-09-17T11:23:40.340Z,6.63
2022-09-17T11:26:25.493Z,13.50
2022-09-17T11:29:13.835Z,11.60
2022-09-17T11:32:02.122Z,8.30
2022-09-17T11:34:36.877Z,9.18
2022-09-17T11:37:12.862Z,13.00
2022-09-17T11:39:42.915Z,7.57
2022-09-17T11:42:14.548Z,9.80
2022-09-17T11:44:54.809Z,14.55
2022-09-17T11:47:31.315Z,6.68
2022-09-17T11:50:05.943Z,5.63
2022-09-17T11:52:37.308Z,11.93
2022-09-17T11:55:30.602Z,9.10
2022-09-17T11:58:03.123Z,10.18
2022-09-17T12:00:33.648Z,8.13
2022-09-17T12:03:45.082Z,9.52
2022-09-17T12:06:20.808Z,5.13
2022-09-17T12:08:56.970Z,8.23
2022-09-17T12:11:59.452Z,7.55
2022-09-17T12:14:44.695Z,6.88
2022-09-17T12:17:23.836Z,10.05
2022-09-17T12:20:05.270Z,14.48
2022-09-17T12:22:40.238Z,9.75
2022-09-17T12:25:12.963Z,11.82
2022-09-17T12:28:19.942Z,18.90
2022-09-17T12:30:55.881Z,6.68
2022-09-17T12:33:35.022Z,7.28
2022-09-17T12:36:05.735Z,4.88
2022-09-17T12:38:44.664Z,8.20
2022-09-17T12:41:14.101Z,7.03
2022-09-17T12:44:02.297Z,3.72
2022-09-17T12:46:56.279Z,9.88
2022-09-17T12:50:10.968Z,7.35
2022-09-17T12:52:40.556Z,7.63
2022-09-17T12:55:44.530Z,7.05
2022-09-17T12:58:50.117Z,5.40
2022-09-17T13:01:25.440Z,12.18
2022-09-17T13:04:56.852Z,7.95
2022-09-17T13:07:44.112Z,4.28
2022-09-17T13:10:35.536Z,16.02
2022-09-17T13:13:22.820Z,8.50
2022-09-17T13:15:52.438Z,8.48
2022-09-17T13:18:53.884Z,4.25
2022-09-17T13:21:54.658Z,3.72
2022-09-17T13:24:25.241Z,5.40
2022-09-17T13:26:56.679Z,5.57
2022-09-17T13:29:45.169Z,8.27
2022-09-17T13:32:36.880Z,10.25
2022-09-17T13:35:15.189Z,8.45
2022-09-17T13:37:43.562Z,7.82
2022-09-17T13:40:35.165Z,5.97
2022-09-17T13:43:04.594Z,3.90
2022-09-17T13:45:33.814Z,7.10
2022-09-17T13:48:11.793Z,9.20
2022-09-17T13:50:40.765Z,5.60
2022-09-17T13:53:18.117Z,11.60
2022-09-17T13:55:59.450Z,4.28
2022-09-17T13:58:32.252Z,13.30
2022-09-17T14:01:00.151Z,7.15
2022-09-17T14:03:50.116Z,10.32
2022-09-17T14:06:21.210Z,10.00
2022-09-17T14:08:47.812Z,9.02
2022-09-17T14:11:23.631Z,8.27
2022-09-17T14:13:56.916Z,12.18
2022-09-17T14:16:45.762Z,7.32
2022-09-17T14:19:36.996Z,4.60
2022-09-17T14:22:13.273Z,8.65
2022-09-17T14:24:42.602Z,13.93
2022-09-17T14:27:27.485Z,7.70
2022-09-17T14:30:14.085Z,8.32
2022-09-17T14:33:14.370Z,4.75
2022-09-17T14:35:46.175Z,4.00
2022-09-17T14:38:30.006Z,5.50
2022-09-17T14:41:11.858Z,4.32
2022-09-17T14:44:05.982Z,4.07
2022-09-17T14:46:39.835Z,2.60
2022-09-17T14:51:42.803Z,4.05
2022-09-17T14:54:35.073Z,11.70
2022-09-17T14:57:22.941Z,12.82
2022-09-17T15:00:00.031Z,11.27
2022-09-17T15:02:33.078Z,2.85
2022-09-17T15:05:00.538Z,5.87
2022-09-17T15:07:27.632Z,4.10
2022-09-17T15:09:55.560Z,6.22
2022-09-17T15:12:28.289Z,3.83
2022-09-17T15:14:56.518Z,7.20
2022-09-17T15:17:23.205Z,6.10
2022-09-17T15:19:54.474Z,5.10
2022-09-17T15:22:26.144Z,9.32
2022-09-17T15:25:16.233Z,5.07
2022-09-17T15:27:45.832Z,3.88
2022-09-17T15:30:23.633Z,6.15
2022-09-17T15:32:51.517Z,4.03
2022-09-17T15:35:21.755Z,1.77
2022-09-17T15:38:18.523Z,4.50
2022-09-17T15:40:41.314Z,3.53
2022-09-17T15:43:30.996Z,6.53
2022-09-17T15:46:00.758Z,5.30
2022-09-17T15:48:30.320Z,5.32
2022-09-17T15:50:59.865Z,6.65
2022-09-17T15:53:31.792Z,2.53
2022-09-17T15:56:01.902Z,3.97
2022-09-17T15:58:37.798Z,3.38
2022-09-17T16:01:17.060Z,1.58
2022-09-17T16:03:43.653Z,5.80
2022-09-17T16:06:36.825Z,8.63
2022-09-17T16:09:03.972Z,5.10
2022-09-17T16:11:32.043Z,13.50
2022-09-17T16:14:01.018Z,10.82
2022-09-17T16:16:35.198Z,4.07
2022-09-17T16:19:02.838Z,8.18
2022-09-17T16:21:29.506Z,2.20
2022-09-17T16:23:58.132Z,5.35
2022-09-17T16:26:29.811Z,6.18
2022-09-17T16:29:02.738Z,7.50
2022-09-17T16:31:29.712Z,6.20
2022-09-17T16:33:56.421Z,6.35
2022-09-17T16:36:23.062Z,7.95
2022-09-17T16:38:49.637Z,5.93
2022-09-17T16:41:16.228Z,7.90
2022-09-17T16:43:42.919Z,9.18
2022-09-17T16:46:11.292Z,14.68
2022-09-17T16:48:38.449Z,20.23
2022-09-17T16:51:08.119Z,14.02
2022-09-17T16:53:34.765Z,12.60
2022-09-17T16:56:01.554Z,12.40
2022-09-17T16:58:28.146Z,10.27
2022-09-17T17:00:55.802Z,4.13
2022-09-17T17:03:22.418Z,5.72
2022-09-17T17:05:48.990Z,4.68
2022-09-17T17:08:15.799Z,5.75
2022-09-17T17:10:42.440Z,11.13
2022-09-17T17:13:09.002Z,6.65
2022-09-17T17:15:35.543Z,6.60
2022-09-17T17:18:02.154Z,5.38
2022-09-17T17:20:29.509Z,14.23
2022-09-17T17:22:56.062Z,10.82
2022-09-17T17:25:23.839Z,5.28
2022-09-17T17:27:50.448Z,11.15
2022-09-17T17:30:17.664Z,9.85
2022-09-17T17:32:48.781Z,8.50
2022-09-17T17:35:15.740Z,7.15
2022-09-17T17:37:42.410Z,9.65
2022-09-17T17:40:10.507Z,6.82
2022-09-17T17:42:39.515Z,18.45
2022-09-17T17:45:07.983Z,8.82
2022-09-17T17:47:35.082Z,19.73
2022-09-17T17:50:02.166Z,7.93
2022-09-17T17:52:28.753Z,9.02
2022-09-17T17:54:55.518Z,12.65
2022-09-17T17:57:22.153Z,9.43
2022-09-17T17:59:48.702Z,15.50
2022-09-17T18:02:15.360Z,11.43
2022-09-17T18:04:42.113Z,8.63
2022-09-17T18:07:08.712Z,10.38
2022-09-17T18:09:35.523Z,7.88
2022-09-17T18:12:02.342Z,12.80
2022-09-17T18:14:28.954Z,4.72
2022-09-17T18:16:55.576Z,9.80
2022-09-17T18:19:22.112Z,9.63
2022-09-17T18:21:48.691Z,25.13
2022-09-17T18:24:15.355Z,11.27
2022-09-17T18:26:41.895Z,11.18
2022-09-17T18:29:08.561Z,13.32
2022-09-17T18:31:35.959Z,20.33
2022-09-17T18:34:09.352Z,12.02
2022-09-17T18:36:37.876Z,12.85
2022-09-17T18:39:44.588Z,11.73
2022-09-17T18:41:52.852Z,9.05
2022-09-17T18:44:21.739Z,13.32
2022-09-17T18:46:50.248Z,12.93
2022-09-17T18:49:17.255Z,13.02
2022-09-17T18:51:43.969Z,11.90
2022-09-17T18:54:12.719Z,13.05
2022-09-17T18:56:41.068Z,11.20
2022-09-17T18:59:08.502Z,10.35
2022-09-17T19:01:35.930Z,12.52
2022-09-17T19:04:03.385Z,13.52
2022-09-17T19:06:32.424Z,15.40
2022-09-17T19:09:00.965Z,11.32
2022-09-17T19:11:27.996Z,16.65
2022-09-17T19:13:54.945Z,13.23
2022-09-17T19:16:21.599Z,14.75
2022-09-17T19:18:48.251Z,16.40
2022-09-17T19:21:19.592Z,19.63
2022-09-17T19:23:48.170Z,23.40
2022-09-17T19:26:18.103Z,23.23
2022-09-17T19:28:45.181Z,14.90
2022-09-17T19:31:14.634Z,11.88
2022-09-17T19:33:41.443Z,18.83
2022-09-17T19:36:11.586Z,15.43
2022-09-17T19:38:39.118Z,12.55
2022-09-17T19:41:08.235Z,18.77
2022-09-17T19:43:34.869Z,21.42
2022-09-17T19:46:02.401Z,21.65
2022-09-17T19:48:29.998Z,12.80
2022-09-17T19:50:57.298Z,18.13
2022-09-17T19:53:24.658Z,15.57
2022-09-17T19:55:51.304Z,15.32
2022-09-17T19:58:17.966Z,17.35
2022-09-17T20:00:44.682Z,9.60
2022-09-17T20:03:11.417Z,13.23
2022-09-17T20:05:38.523Z,13.02
2022-09-17T20:08:05.205Z,22.08
2022-09-17T20:10:36.510Z,20.05
2022-09-17T20:13:03.767Z,15.18
2022-09-17T20:15:33.463Z,12.25
2022-09-17T20:18:00.028Z,19.92
2022-09-17T20:20:28.583Z,26.40
2022-09-17T20:22:55.899Z,15.88
2022-09-17T20:25:24.136Z,14.35
2022-09-17T20:27:50.677Z,26.73
2022-09-17T20:30:17.238Z,18.63
2022-09-17T20:32:43.765Z,21.33
2022-09-17T20:35:10.389Z,20.67
2022-09-17T20:38:33.109Z,17.70
2022-09-17T20:40:23.507Z,29.23
2022-09-17T20:42:50.372Z,15.88
2022-09-17T20:45:16.903Z,15.73
2022-09-17T20:47:43.990Z,16.85
2022-09-17T20:50:10.702Z,26.23
2022-09-17T20:52:37.346Z,15.77
2022-09-17T20:55:04.221Z,21.42
2022-09-17T20:57:31.573Z,12.55
2022-09-17T21:00:00.858Z,14.18
2022-09-17T21:02:27.673Z,13.52
2022-09-17T21:04:54.445Z,20.98
2022-09-17T21:07:21.043Z,20.17
2022-09-17T21:09:47.673Z,17.67
2022-09-17T21:12:14.223Z,20.70
2022-09-17T21:14:40.763Z,27.17
2022-09-17T21:17:07.386Z,13.45
2022-09-17T21:19:33.987Z,22.38
2022-09-17T21:22:00.598Z,14.25
2022-09-17T21:24:27.162Z,17.70
2022-09-17T21:26:54.214Z,18.63
2022-09-17T21:29:20.953Z,17.52
2022-09-17T21:31:47.788Z,14.70
2022-09-17T21:34:14.865Z,24.10
2022-09-17T21:36:44.502Z,16.48
2022-09-17T21:39:14.582Z,16.80
2022-09-17T21:41:43.050Z,11.50
2022-09-17T21:44:11.691Z,16.98
2022-09-17T21:46:40.840Z,12.02
2022-09-17T21:49:07.468Z,16.55
2022-09-17T21:51:39.235Z,17.80
2022-09-17T21:54:10.582Z,17.92
2022-09-17T21:56:37.704Z,18.88
2022-09-17T21:59:06.702Z,22.10
2022-09-17T22:01:39.602Z,18.85
2022-09-17T22:04:08.461Z,13.95
2022-09-17T22:06:35.805Z,28.65
2022-09-17T22:09:04.631Z,22.67
2022-09-17T22:11:33.810Z,25.90
2022-09-17T22:14:21.631Z,21.60
2022-09-17T22:16:50.970Z,19.85
2022-09-17T22:19:19.233Z,19.63
2022-09-17T22:21:48.774Z,13.77
2022-09-17T22:24:16.226Z,16.35
2022-09-17T22:26:46.082Z,19.30
2022-09-17T22:29:17.878Z,16.60
2022-09-17T22:31:45.375Z,20.30
2022-09-17T22:34:15.208Z,11.88
2022-09-17T22:36:41.787Z,16.70
2022-09-17T22:39:08.900Z,19.83
2022-09-17T22:41:37.166Z,16.88
2022-09-17T22:44:06.607Z,17.17
2022-09-17T22:46:35.275Z,14.95
2022-09-17T22:49:02.770Z,18.08
2022-09-17T22:51:30.293Z,18.75
2022-09-17T22:53:58.344Z,12.48
2022-09-17T22:56:25.982Z,14.95
2022-09-17T22:58:52.658Z,12.70
2022-09-17T23:01:22.294Z,14.63
2022-09-17T23:03:51.633Z,17.05
2022-09-17T23:06:21.249Z,21.50
2022-09-17T23:08:48.216Z,17.35
2022-09-17T23:11:20.367Z,16.45
2022-09-17T23:13:48.270Z,12.50
2022-09-17T23:16:15.267Z,12.90
2022-09-17T23:18:42.202Z,13.02
2022-09-17T23:21:14.050Z,20.75
2022-09-17T23:23:42.213Z,23.33
2022-09-17T23:26:12.191Z,12.18
2022-09-17T23:28:39.490Z,19.23
2022-09-17T23:31:10.734Z,23.05
2022-09-17T23:33:37.439Z,13.18
2022-09-17T23:36:09.790Z,14.68
2022-09-17T23:38:36.326Z,11.57
2022-09-17T23:41:23.798Z,8.98
2022-09-17T23:43:55.452Z,9.75
2022-09-17T23:46:23.510Z,9.80
2022-09-17T23:48:51.756Z,12.93
2022-09-17T23:51:18.305Z,9.48
2022-09-17T23:53:45.099Z,10.30
2022-09-17T23:56:13.967Z,7.55
2022-09-17T23:58:40.932Z,8.68
